Sibley, IA

4:27 PM CDT on October 25, 2014 (GMT -0500)
Sheldon Municipal | Change Station
CLOSE
Current Station
Airport
Location: Sheldon,
Elevation: 1417 ft
Nearby Weather Stations

Elev 1417 ft 43.21 °N, 95.84 °W | Updated 12 minutes ago

Clear
Clear
68 °F
Feels Like 68 °F
N
7
Wind Variable Wind from Variable

Today
High -- | Low -- °F
--% Chance of Precip.
Yesterday
High -- | Low -- °F
Precip. -- in
7:49 AM 6:24 PM
Waxing Crescent, 4% visible
Pressure 30.08 in
Visibility 10.0 miles
Clouds Clear
Dew Point 32 °F
Humidity 26%
Rainfall 0.00 in
Snow Depth Not available.
UV 1 out of 12
Pollen 1.70 out of 12
Air Quality Not available.
Flu Activity Sporadic
METAR KSHL 252115Z AUTO VRB06KT 10SM CLR 20/M00 A3008 RMK AO2

More Conditions Fewer Conditions

Pressure 30.08 in
Visibility 10.0 miles
Clouds Clear
Dew Point 32 °F
Humidity 26%
Rainfall 0.00 in
Snow Depth Not available.
UV 1 out of 12
Pollen 1.70 out of 12
Air Quality Not available.
Flu Activity Sporadic
METAR KSHL 252115Z AUTO VRB06KT 10SM CLR 20/M00 A3008 RMK AO2

More Conditions Fewer Conditions

10-Day Weather Forecast

Almanac

Astronomy

Oct. 25, 2014 Rise Set
Actual Time 7:49 AM CDT 6:24 PM CDT
Civil Twilight 7:20 AM CDT 6:53 PM CDT
Nautical Twilight 6:46 AM CDT 7:26 PM CDT
Astronomical Twilight 6:13 AM CDT 7:59 PM CDT
Moon 9:31 AM CDT 7:45 PM CDT
Length of Visible Light 11h 33m
Length of Day
10h 34m
Tomorrow will be 2m 45s shorter.
Waxing Crescent, 4% of the Moon is Illuminated
Today
Waxing Crescent
Oct 30
First Quarter
Nov 6
Full
Nov 14
Last Quarter
Nov 22
New

Today's Extremes

State Highs State Lows

Community

WunderPhotos

Upload Photos

1,765,001 photos uploaded!

Nearby

Snow Depth

Station Depth Elevation
No new snow has been reported.

Earthquake Activity

City Distance Mag. Time & Date
No recent earthquake activity has been reported nearby.
Minimum magnitude displayed is 2.5.

Coastal Water Temperatures

Place Temperature
No Stations Reporting

Nearby Weather Stations